sensor_id;sensor_type;location;lat;lon;timestamp;pressure;altitude;pressure_sealevel;temperature;humidity
67430;BME280;54298;52.076;5.264;2023-04-25T00:00:48;100999.0;;;7.11;81.52
67430;BME280;54298;52.076;5.264;2023-04-25T00:02:24;101002.0;;;7.13;81.72
67430;BME280;54298;52.076;5.264;2023-04-25T00:05:36;101003.0;;;7.19;81.61
67430;BME280;54298;52.076;5.264;2023-04-25T00:07:13;101006.0;;;7.29;81.42
67430;BME280;54298;52.076;5.264;2023-04-25T00:08:49;101002.0;;;7.27;81.41
67430;BME280;54298;52.076;5.264;2023-04-25T00:12:02;101008.0;;;7.41;80.83
67430;BME280;54298;52.076;5.264;2023-04-25T00:13:38;101020.0;;;7.53;80.61
67430;BME280;54298;52.076;5.264;2023-04-25T00:15:14;101019.0;;;7.48;80.33
67430;BME280;54298;52.076;5.264;2023-04-25T00:18:26;101022.0;;;7.27;81.63
67430;BME280;54298;52.076;5.264;2023-04-25T00:20:03;101024.0;;;7.0;82.18
67430;BME280;54298;52.076;5.264;2023-04-25T00:21:38;101020.0;;;7.22;81.86
67430;BME280;54298;52.076;5.264;2023-04-25T00:23:15;101025.0;;;7.19;81.36
67430;BME280;54298;52.076;5.264;2023-04-25T00:26:28;101021.0;;;7.16;82.04
67430;BME280;54298;52.076;5.264;2023-04-25T00:28:05;101018.0;;;7.29;81.75
67430;BME280;54298;52.076;5.264;2023-04-25T00:29:41;101015.0;;;7.41;81.52
67430;BME280;54298;52.076;5.264;2023-04-25T00:32:53;101015.0;;;7.35;80.92
67430;BME280;54298;52.076;5.264;2023-04-25T00:34:29;101020.0;;;7.48;79.61
67430;BME280;54298;52.076;5.264;2023-04-25T00:36:07;101022.0;;;7.47;79.91
67430;BME280;54298;52.076;5.264;2023-04-25T00:39:19;101019.0;;;7.38;80.2
67430;BME280;54298;52.076;5.264;2023-04-25T00:40:56;101022.0;;;7.31;80.37
67430;BME280;54298;52.076;5.264;2023-04-25T00:42:32;101022.0;;;7.28;80.62
67430;BME280;54298;52.076;5.264;2023-04-25T00:45:47;101022.0;;;7.21;81.24
67430;BME280;54298;52.076;5.264;2023-04-25T00:47:23;101026.0;;;7.15;80.66
67430;BME280;54298;52.076;5.264;2023-04-25T00:49:00;101023.0;;;7.17;80.59
67430;BME280;54298;52.076;5.264;2023-04-25T00:50:36;101025.0;;;7.14;80.83
67430;BME280;54298;52.076;5.264;2023-04-25T00:53:50;101023.0;;;7.11;81.55
67430;BME280;54298;52.076;5.264;2023-04-25T00:55:27;101024.0;;;6.98;81.93
67430;BME280;54298;52.076;5.264;2023-04-25T00:57:03;101024.0;;;6.97;81.58
67430;BME280;54298;52.076;5.264;2023-04-25T01:00:17;101019.0;;;6.93;81.66
67430;BME280;54298;52.076;5.264;2023-04-25T01:01:53;101020.0;;;6.75;83.1
67430;BME280;54298;52.076;5.264;2023-04-25T01:03:32;101021.0;;;6.68;82.42
67430;BME280;54298;52.076;5.264;2023-04-25T01:05:09;101021.0;;;6.77;82.57
67430;BME280;54298;52.076;5.264;2023-04-25T01:08:23;101021.0;;;6.63;82.88
67430;BME280;54298;52.076;5.264;2023-04-25T01:09:59;101024.0;;;6.62;82.86
67430;BME280;54298;52.076;5.264;2023-04-25T01:11:35;101022.0;;;6.55;83.8
67430;BME280;54298;52.076;5.264;2023-04-25T01:14:47;101024.0;;;6.56;84.0
67430;BME280;54298;52.076;5.264;2023-04-25T01:16:24;101023.0;;;6.59;83.76
67430;BME280;54298;52.076;5.264;2023-04-25T01:18:00;101026.0;;;6.5;84.49
67430;BME280;54298;52.076;5.264;2023-04-25T01:21:13;101030.0;;;6.53;84.01
67430;BME280;54298;52.076;5.264;2023-04-25T01:22:50;101035.0;;;6.52;83.86
67430;BME280;54298;52.076;5.264;2023-04-25T01:24:26;101034.0;;;6.47;83.9
67430;BME280;54298;52.076;5.264;2023-04-25T01:26:03;101032.0;;;6.33;83.82
67430;BME280;54298;52.076;5.264;2023-04-25T01:29:18;101027.0;;;6.36;83.91
67430;BME280;54298;52.076;5.264;2023-04-25T01:30:56;101036.0;;;6.27;84.15
67430;BME280;54298;52.076;5.264;2023-04-25T01:32:32;101037.0;;;6.21;84.28
67430;BME280;54298;52.076;5.264;2023-04-25T01:35:45;101040.0;;;6.24;84.03
67430;BME280;54298;52.076;5.264;2023-04-25T01:37:22;101047.0;;;6.08;84.42
67430;BME280;54298;52.076;5.264;2023-04-25T01:38:58;101048.0;;;5.98;84.86
67430;BME280;54298;52.076;5.264;2023-04-25T01:42:16;101049.0;;;6.0;84.91
67430;BME280;54298;52.076;5.264;2023-04-25T01:43:54;101048.0;;;6.0;84.95
67430;BME280;54298;52.076;5.264;2023-04-25T01:45:30;101050.0;;;5.8;85.65
67430;BME280;54298;52.076;5.264;2023-04-25T01:47:06;101050.0;;;5.82;85.39
67430;BME280;54298;52.076;5.264;2023-04-25T01:50:19;101055.0;;;5.76;86.01
67430;BME280;54298;52.076;5.264;2023-04-25T01:51:55;101058.0;;;5.74;85.99
67430;BME280;54298;52.076;5.264;2023-04-25T01:53:31;101056.0;;;5.76;86.05
67430;BME280;54298;52.076;5.264;2023-04-25T01:56:50;101057.0;;;5.78;86.2
67430;BME280;54298;52.076;5.264;2023-04-25T01:58:26;101060.0;;;5.85;86.34
67430;BME280;54298;52.076;5.264;2023-04-25T02:00:04;101065.0;;;5.93;86.07
67430;BME280;54298;52.076;5.264;2023-04-25T02:01:42;101069.0;;;5.9;86.42
67430;BME280;54298;52.076;5.264;2023-04-25T02:04:54;101072.0;;;5.95;85.97
67430;BME280;54298;52.076;5.264;2023-04-25T02:06:31;101073.0;;;5.97;85.75
67430;BME280;54298;52.076;5.264;2023-04-25T02:08:08;101076.0;;;5.85;85.67
67430;BME280;54298;52.076;5.264;2023-04-25T02:11:21;101069.0;;;5.73;86.41
67430;BME280;54298;52.076;5.264;2023-04-25T02:12:57;101078.0;;;5.74;86.64
67430;BME280;54298;52.076;5.264;2023-04-25T02:14:33;101076.0;;;5.79;86.82
67430;BME280;54298;52.076;5.264;2023-04-25T02:17:45;101077.0;;;5.87;86.41
67430;BME280;54298;52.076;5.264;2023-04-25T02:19:22;101076.0;;;5.82;86.42
67430;BME280;54298;52.076;5.264;2023-04-25T02:20:58;101072.0;;;5.72;86.85
67430;BME280;54298;52.076;5.264;2023-04-25T02:22:35;101078.0;;;5.72;86.78
67430;BME280;54298;52.076;5.264;2023-04-25T02:25:48;101076.0;;;5.8;86.29
67430;BME280;54298;52.076;5.264;2023-04-25T02:27:24;101076.0;;;5.75;86.44
67430;BME280;54298;52.076;5.264;2023-04-25T02:29:00;101081.0;;;5.69;86.83
67430;BME280;54298;52.076;5.264;2023-04-25T02:32:13;101077.0;;;5.76;86.97
67430;BME280;54298;52.076;5.264;2023-04-25T02:33:49;101076.0;;;5.84;86.6
67430;BME280;54298;52.076;5.264;2023-04-25T02:35:26;101076.0;;;5.71;86.31
67430;BME280;54298;52.076;5.264;2023-04-25T02:38:38;101071.0;;;5.78;86.34
67430;BME280;54298;52.076;5.264;2023-04-25T02:40:15;101076.0;;;5.69;86.89
67430;BME280;54298;52.076;5.264;2023-04-25T02:41:52;101076.0;;;5.61;87.11
67430;BME280;54298;52.076;5.264;2023-04-25T02:43:27;101082.0;;;5.66;87.34
67430;BME280;54298;52.076;5.264;2023-04-25T02:46:41;101078.0;;;5.69;87.47
67430;BME280;54298;52.076;5.264;2023-04-25T02:48:17;101078.0;;;5.7;87.13
67430;BME280;54298;52.076;5.264;2023-04-25T02:49:53;101072.0;;;5.63;87.45
67430;BME280;54298;52.076;5.264;2023-04-25T02:53:05;101080.0;;;5.63;88.06
67430;BME280;54298;52.076;5.264;2023-04-25T02:54:41;101072.0;;;5.71;87.5
67430;BME280;54298;52.076;5.264;2023-04-25T02:56:17;101074.0;;;5.71;87.11
67430;BME280;54298;52.076;5.264;2023-04-25T02:59:30;101072.0;;;5.77;87.34
67430;BME280;54298;52.076;5.264;2023-04-25T03:01:06;101080.0;;;5.83;86.76
67430;BME280;54298;52.076;5.264;2023-04-25T03:02:42;101078.0;;;5.83;86.54
67430;BME280;54298;52.076;5.264;2023-04-25T03:05:54;101084.0;;;5.83;86.77
67430;BME280;54298;52.076;5.264;2023-04-25T03:07:30;101081.0;;;5.71;86.68
67430;BME280;54298;52.076;5.264;2023-04-25T03:09:06;101085.0;;;5.73;87.29
67430;BME280;54298;52.076;5.264;2023-04-25T03:10:43;101095.0;;;5.88;87.01
67430;BME280;54298;52.076;5.264;2023-04-25T03:13:56;101093.0;;;5.89;86.69
67430;BME280;54298;52.076;5.264;2023-04-25T03:15:32;101094.0;;;6.02;86.37
67430;BME280;54298;52.076;5.264;2023-04-25T03:17:08;101090.0;;;6.0;86.3
67430;BME280;54298;52.076;5.264;2023-04-25T03:20:20;101093.0;;;5.96;86.26
67430;BME280;54298;52.076;5.264;2023-04-25T03:21:56;101095.0;;;6.0;85.91
67430;BME280;54298;52.076;5.264;2023-04-25T03:23:33;101093.0;;;6.04;85.77
67430;BME280;54298;52.076;5.264;2023-04-25T03:26:45;101100.0;;;6.13;85.65
67430;BME280;54298;52.076;5.264;2023-04-25T03:28:21;101100.0;;;6.08;85.45
67430;BME280;54298;52.076;5.264;2023-04-25T03:29:58;101103.0;;;6.07;85.9
67430;BME280;54298;52.076;5.264;2023-04-25T03:31:34;101109.0;;;6.18;85.89
67430;BME280;54298;52.076;5.264;2023-04-25T03:34:46;101103.0;;;6.04;86.02
67430;BME280;54298;52.076;5.264;2023-04-25T03:36:23;101107.0;;;6.12;86.27
67430;BME280;54298;52.076;5.264;2023-04-25T03:37:59;101106.0;;;6.13;85.81
67430;BME280;54298;52.076;5.264;2023-04-25T03:41:12;101109.0;;;6.12;84.56
67430;BME280;54298;52.076;5.264;2023-04-25T03:42:48;101105.0;;;6.12;83.08
67430;BME280;54298;52.076;5.264;2023-04-25T03:44:24;101109.0;;;6.15;82.35
67430;BME280;54298;52.076;5.264;2023-04-25T03:47:36;101099.0;;;6.26;81.3
67430;BME280;54298;52.076;5.264;2023-04-25T03:49:13;101103.0;;;6.39;80.41
67430;BME280;54298;52.076;5.264;2023-04-25T03:50:49;101107.0;;;6.49;80.55
67430;BME280;54298;52.076;5.264;2023-04-25T03:54:01;101106.0;;;6.38;79.8
67430;BME280;54298;52.076;5.264;2023-04-25T03:55:37;101107.0;;;6.35;80.2
67430;BME280;54298;52.076;5.264;2023-04-25T03:57:13;101105.0;;;6.38;79.41
67430;BME280;54298;52.076;5.264;2023-04-25T03:58:49;101106.0;;;6.36;79.94
67430;BME280;54298;52.076;5.264;2023-04-25T04:02:01;101110.0;;;6.36;79.34
67430;BME280;54298;52.076;5.264;2023-04-25T04:03:38;101112.0;;;6.35;79.16
67430;BME280;54298;52.076;5.264;2023-04-25T04:05:14;101114.0;;;6.41;79.2
67430;BME280;54298;52.076;5.264;2023-04-25T04:08:26;101118.0;;;6.39;80.08
67430;BME280;54298;52.076;5.264;2023-04-25T04:10:02;101121.0;;;6.41;80.12
67430;BME280;54298;52.076;5.264;2023-04-25T04:11:38;101128.0;;;6.54;79.41
67430;BME280;54298;52.076;5.264;2023-04-25T04:14:50;101126.0;;;6.52;79.53
67430;BME280;54298;52.076;5.264;2023-04-25T04:16:26;101123.0;;;6.46;79.36
67430;BME280;54298;52.076;5.264;2023-04-25T04:18:03;101130.0;;;6.5;79.36
67430;BME280;54298;52.076;5.264;2023-04-25T04:19:39;101130.0;;;6.42;79.42
67430;BME280;54298;52.076;5.264;2023-04-25T04:22:51;101134.0;;;6.32;79.33
67430;BME280;54298;52.076;5.264;2023-04-25T04:24:27;101137.0;;;6.27;79.89
67430;BME280;54298;52.076;5.264;2023-04-25T04:26:03;101138.0;;;6.24;79.55
67430;BME280;54298;52.076;5.264;2023-04-25T04:29:16;101142.0;;;6.27;78.99
67430;BME280;54298;52.076;5.264;2023-04-25T04:30:53;101145.0;;;6.26;79.39
67430;BME280;54298;52.076;5.264;2023-04-25T04:32:29;101148.0;;;6.28;78.69
67430;BME280;54298;52.076;5.264;2023-04-25T04:35:41;101147.0;;;6.22;79.06
67430;BME280;54298;52.076;5.264;2023-04-25T04:37:17;101151.0;;;6.29;78.69
67430;BME280;54298;52.076;5.264;2023-04-25T04:38:53;101151.0;;;6.26;78.95
67430;BME280;54298;52.076;5.264;2023-04-25T04:42:06;101149.0;;;6.32;79.25
67430;BME280;54298;52.076;5.264;2023-04-25T04:43:43;101149.0;;;6.31;79.22
67430;BME280;54298;52.076;5.264;2023-04-25T04:45:19;101156.0;;;6.38;78.25
67430;BME280;54298;52.076;5.264;2023-04-25T04:46:55;101157.0;;;6.4;78.06
67430;BME280;54298;52.076;5.264;2023-04-25T04:50:09;101159.0;;;6.42;77.91
67430;BME280;54298;52.076;5.264;2023-04-25T04:51:46;101165.0;;;6.45;77.56
67430;BME280;54298;52.076;5.264;2023-04-25T04:53:22;101165.0;;;6.45;76.87
67430;BME280;54298;52.076;5.264;2023-04-25T04:56:35;101164.0;;;6.46;77.31
67430;BME280;54298;52.076;5.264;2023-04-25T04:58:11;101165.0;;;6.41;77.39
67430;BME280;54298;52.076;5.264;2023-04-25T04:59:47;101170.0;;;6.44;77.2
67430;BME280;54298;52.076;5.264;2023-04-25T05:04:36;101174.0;;;6.7;76.95
67430;BME280;54298;52.076;5.264;2023-04-25T05:06:12;101173.0;;;6.65;77.24
67430;BME280;54298;52.076;5.264;2023-04-25T05:07:49;101178.0;;;6.72;76.97
67430;BME280;54298;52.076;5.264;2023-04-25T05:11:02;101180.0;;;6.66;76.83
67430;BME280;54298;52.076;5.264;2023-04-25T05:12:38;101191.0;;;6.66;76.94
67430;BME280;54298;52.076;5.264;2023-04-25T05:14:14;101187.0;;;6.75;77.02
67430;BME280;54298;52.076;5.264;2023-04-25T05:17:26;101189.0;;;6.87;76.22
67430;BME280;54298;52.076;5.264;2023-04-25T05:19:03;101189.0;;;6.85;75.5
67430;BME280;54298;52.076;5.264;2023-04-25T05:20:39;101192.0;;;6.75;74.58
67430;BME280;54298;52.076;5.264;2023-04-25T05:23:51;101196.0;;;6.91;74.61
67430;BME280;54298;52.076;5.264;2023-04-25T05:25:27;101189.0;;;7.0;74.08
67430;BME280;54298;52.076;5.264;2023-04-25T05:27:03;101195.0;;;6.83;74.19
67430;BME280;54298;52.076;5.264;2023-04-25T05:31:52;101203.0;;;6.94;74.55
67430;BME280;54298;52.076;5.264;2023-04-25T05:33:28;101203.0;;;7.05;75.17
67430;BME280;54298;52.076;5.264;2023-04-25T05:35:05;101209.0;;;6.86;74.7
67430;BME280;54298;52.076;5.264;2023-04-25T05:38:17;101207.0;;;6.9;74.08
67430;BME280;54298;52.076;5.264;2023-04-25T05:39:53;101210.0;;;6.7;73.41
67430;BME280;54298;52.076;5.264;2023-04-25T05:41:29;101212.0;;;7.05;73.77
67430;BME280;54298;52.076;5.264;2023-04-25T05:44:42;101207.0;;;7.11;73.33
67430;BME280;54298;52.076;5.264;2023-04-25T05:46:18;101206.0;;;7.14;73.49
67430;BME280;54298;52.076;5.264;2023-04-25T05:47:54;101211.0;;;7.25;71.87
67430;BME280;54298;52.076;5.264;2023-04-25T05:51:06;101207.0;;;7.25;70.75
67430;BME280;54298;52.076;5.264;2023-04-25T05:52:44;101216.0;;;7.37;70.36
67430;BME280;54298;52.076;5.264;2023-04-25T05:54:20;101217.0;;;7.41;70.74
67430;BME280;54298;52.076;5.264;2023-04-25T05:55:55;101220.0;;;7.42;70.61
67430;BME280;54298;52.076;5.264;2023-04-25T05:59:07;101222.0;;;7.26;70.16
67430;BME280;54298;52.076;5.264;2023-04-25T06:00:43;101222.0;;;7.44;70.97
67430;BME280;54298;52.076;5.264;2023-04-25T06:02:20;101227.0;;;7.49;70.19
67430;BME280;54298;52.076;5.264;2023-04-25T06:07:09;101227.0;;;7.21;68.27
67430;BME280;54298;52.076;5.264;2023-04-25T06:08:45;101237.0;;;7.35;68.61
67430;BME280;54298;52.076;5.264;2023-04-25T06:11:57;101237.0;;;7.56;68.22
67430;BME280;54298;52.076;5.264;2023-04-25T06:13:33;101237.0;;;7.7;68.69
67430;BME280;54298;52.076;5.264;2023-04-25T06:15:10;101243.0;;;7.75;68.89
67430;BME280;54298;52.076;5.264;2023-04-25T06:16:46;101241.0;;;7.84;67.23
67430;BME280;54298;52.076;5.264;2023-04-25T06:19:58;101249.0;;;7.83;68.0
67430;BME280;54298;52.076;5.264;2023-04-25T06:21:34;101248.0;;;7.94;68.53
67430;BME280;54298;52.076;5.264;2023-04-25T06:23:11;101253.0;;;7.94;68.3
67430;BME280;54298;52.076;5.264;2023-04-25T06:26:24;101250.0;;;8.0;67.77
67430;BME280;54298;52.076;5.264;2023-04-25T06:28:00;101252.0;;;7.95;67.14
67430;BME280;54298;52.076;5.264;2023-04-25T06:29:36;101256.0;;;7.86;66.56
67430;BME280;54298;52.076;5.264;2023-04-25T06:32:48;101257.0;;;8.06;66.41
67430;BME280;54298;52.076;5.264;2023-04-25T06:34:24;101261.0;;;7.87;66.25
67430;BME280;54298;52.076;5.264;2023-04-25T06:36:00;101259.0;;;7.85;65.78
67430;BME280;54298;52.076;5.264;2023-04-25T06:39:13;101250.0;;;7.98;66.08
67430;BME280;54298;52.076;5.264;2023-04-25T06:40:49;101262.0;;;7.8;66.12
67430;BME280;54298;52.076;5.264;2023-04-25T06:42:25;101268.0;;;7.91;66.47
67430;BME280;54298;52.076;5.264;2023-04-25T06:44:01;101273.0;;;7.88;66.66
67430;BME280;54298;52.076;5.264;2023-04-25T06:47:13;101274.0;;;7.86;66.72
67430;BME280;54298;52.076;5.264;2023-04-25T06:48:50;101273.0;;;7.92;66.75
67430;BME280;54298;52.076;5.264;2023-04-25T06:50:27;101281.0;;;8.02;66.81
67430;BME280;54298;52.076;5.264;2023-04-25T06:53:39;101276.0;;;7.89;66.19
67430;BME280;54298;52.076;5.264;2023-04-25T06:55:16;101278.0;;;7.67;67.16
67430;BME280;54298;52.076;5.264;2023-04-25T06:56:52;101278.0;;;8.02;67.75
67430;BME280;54298;52.076;5.264;2023-04-25T07:00:05;101282.0;;;8.19;67.25
67430;BME280;54298;52.076;5.264;2023-04-25T07:01:43;101284.0;;;7.98;66.6
67430;BME280;54298;52.076;5.264;2023-04-25T07:03:19;101292.0;;;7.97;67.08
67430;BME280;54298;52.076;5.264;2023-04-25T07:04:56;101288.0;;;7.92;66.35
67430;BME280;54298;52.076;5.264;2023-04-25T07:08:09;101291.0;;;7.87;65.83
67430;BME280;54298;52.076;5.264;2023-04-25T07:09:45;101294.0;;;8.05;66.09
67430;BME280;54298;52.076;5.264;2023-04-25T07:11:21;101290.0;;;7.99;67.52
67430;BME280;54298;52.076;5.264;2023-04-25T07:14:33;101297.0;;;8.08;65.91
67430;BME280;54298;52.076;5.264;2023-04-25T07:16:10;101300.0;;;8.34;65.52
67430;BME280;54298;52.076;5.264;2023-04-25T07:17:46;101296.0;;;8.23;64.92
67430;BME280;54298;52.076;5.264;2023-04-25T07:20:58;101307.0;;;8.36;65.28
67430;BME280;54298;52.076;5.264;2023-04-25T07:22:34;101296.0;;;8.56;64.06
67430;BME280;54298;52.076;5.264;2023-04-25T07:24:10;101305.0;;;8.71;63.86
67430;BME280;54298;52.076;5.264;2023-04-25T07:27:22;101303.0;;;8.43;62.53
67430;BME280;54298;52.076;5.264;2023-04-25T07:28:59;101303.0;;;8.56;62.95
67430;BME280;54298;52.076;5.264;2023-04-25T07:30:35;101305.0;;;8.43;63.58
67430;BME280;54298;52.076;5.264;2023-04-25T07:32:11;101311.0;;;8.27;61.74
67430;BME280;54298;52.076;5.264;2023-04-25T07:35:23;101312.0;;;8.24;62.3
67430;BME280;54298;52.076;5.264;2023-04-25T07:36:59;101319.0;;;8.2;62.79
67430;BME280;54298;52.076;5.264;2023-04-25T07:38:35;101319.0;;;8.52;62.33
67430;BME280;54298;52.076;5.264;2023-04-25T07:41:49;101322.0;;;8.68;61.19
67430;BME280;54298;52.076;5.264;2023-04-25T07:43:25;101321.0;;;8.39;61.47
67430;BME280;54298;52.076;5.264;2023-04-25T07:45:01;101323.0;;;8.23;62.4
67430;BME280;54298;52.076;5.264;2023-04-25T07:48:16;101323.0;;;8.43;61.92
67430;BME280;54298;52.076;5.264;2023-04-25T07:49:53;101324.0;;;8.45;61.37
67430;BME280;54298;52.076;5.264;2023-04-25T07:51:29;101325.0;;;8.35;61.45
67430;BME280;54298;52.076;5.264;2023-04-25T07:53:05;101330.0;;;8.42;60.91
67430;BME280;54298;52.076;5.264;2023-04-25T07:56:18;101330.0;;;8.65;61.4
67430;BME280;54298;52.076;5.264;2023-04-25T07:57:54;101336.0;;;8.77;60.53
67430;BME280;54298;52.076;5.264;2023-04-25T07:59:30;101349.0;;;8.93;61.15
67430;BME280;54298;52.076;5.264;2023-04-25T08:02:42;101335.0;;;8.97;59.09
67430;BME280;54298;52.076;5.264;2023-04-25T08:04:18;101343.0;;;9.05;58.3
67430;BME280;54298;52.076;5.264;2023-04-25T08:05:54;101342.0;;;8.96;57.88
67430;BME280;54298;52.076;5.264;2023-04-25T08:09:07;101344.0;;;8.96;58.27
67430;BME280;54298;52.076;5.264;2023-04-25T08:10:43;101347.0;;;8.94;58.26
67430;BME280;54298;52.076;5.264;2023-04-25T08:12:19;101355.0;;;9.19;57.9
67430;BME280;54298;52.076;5.264;2023-04-25T08:13:55;101355.0;;;9.19;57.54
67430;BME280;54298;52.076;5.264;2023-04-25T08:17:07;101361.0;;;9.0;57.17
67430;BME280;54298;52.076;5.264;2023-04-25T08:18:44;101366.0;;;9.23;56.9
67430;BME280;54298;52.076;5.264;2023-04-25T08:20:21;101368.0;;;8.74;56.85
67430;BME280;54298;52.076;5.264;2023-04-25T08:23:33;101366.0;;;8.84;55.71
67430;BME280;54298;52.076;5.264;2023-04-25T08:25:09;101367.0;;;8.92;56.16
67430;BME280;54298;52.076;5.264;2023-04-25T08:26:45;101368.0;;;9.18;56.47
67430;BME280;54298;52.076;5.264;2023-04-25T08:29:57;101371.0;;;9.23;56.28
67430;BME280;54298;52.076;5.264;2023-04-25T08:31:34;101376.0;;;9.13;55.61
67430;BME280;54298;52.076;5.264;2023-04-25T08:33:10;101391.0;;;9.1;55.93
67430;BME280;54298;52.076;5.264;2023-04-25T08:36:22;101391.0;;;8.83;56.34
67430;BME280;54298;52.076;5.264;2023-04-25T08:37:58;101397.0;;;8.49;56.27
67430;BME280;54298;52.076;5.264;2023-04-25T08:39:34;101389.0;;;8.47;57.46
67430;BME280;54298;52.076;5.264;2023-04-25T08:41:11;101400.0;;;8.65;57.98
67430;BME280;54298;52.076;5.264;2023-04-25T08:44:26;101398.0;;;8.83;57.25
67430;BME280;54298;52.076;5.264;2023-04-25T08:46:02;101398.0;;;8.77;57.24
67430;BME280;54298;52.076;5.264;2023-04-25T08:47:38;101405.0;;;8.61;56.98
67430;BME280;54298;52.076;5.264;2023-04-25T08:50:55;101408.0;;;8.69;58.29
67430;BME280;54298;52.076;5.264;2023-04-25T08:52:36;101411.0;;;8.45;57.88
67430;BME280;54298;52.076;5.264;2023-04-25T08:54:13;101414.0;;;8.47;56.54
67430;BME280;54298;52.076;5.264;2023-04-25T08:55:52;101419.0;;;8.32;55.83
67430;BME280;54298;52.076;5.264;2023-04-25T08:59:07;101420.0;;;8.69;56.46
67430;BME280;54298;52.076;5.264;2023-04-25T09:00:43;101420.0;;;8.81;56.0
67430;BME280;54298;52.076;5.264;2023-04-25T09:02:21;101425.0;;;8.63;55.48
67430;BME280;54298;52.076;5.264;2023-04-25T09:05:34;101431.0;;;8.58;55.18
67430;BME280;54298;52.076;5.264;2023-04-25T09:07:10;101434.0;;;8.82;55.33
67430;BME280;54298;52.076;5.264;2023-04-25T09:08:46;101437.0;;;8.82;55.87
67430;BME280;54298;52.076;5.264;2023-04-25T09:10:26;101435.0;;;8.81;55.0
67430;BME280;54298;52.076;5.264;2023-04-25T09:13:40;101428.0;;;9.09;54.66
67430;BME280;54298;52.076;5.264;2023-04-25T09:15:16;101434.0;;;9.09;54.26
67430;BME280;54298;52.076;5.264;2023-04-25T09:17:01;101448.0;;;9.25;54.68
67430;BME280;54298;52.076;5.264;2023-04-25T09:20:14;101450.0;;;9.1;50.38
67430;BME280;54298;52.076;5.264;2023-04-25T09:21:50;101440.0;;;9.16;50.83
67430;BME280;54298;52.076;5.264;2023-04-25T09:23:27;101437.0;;;9.53;49.76
67430;BME280;54298;52.076;5.264;2023-04-25T09:25:04;101443.0;;;9.42;47.82
67430;BME280;54298;52.076;5.264;2023-04-25T09:28:24;101445.0;;;9.55;49.24
67430;BME280;54298;52.076;5.264;2023-04-25T09:30:00;101453.0;;;9.58;48.41
67430;BME280;54298;52.076;5.264;2023-04-25T09:31:36;101447.0;;;9.82;46.75
67430;BME280;54298;52.076;5.264;2023-04-25T09:34:51;101448.0;;;10.06;46.65
67430;BME280;54298;52.076;5.264;2023-04-25T09:36:29;101448.0;;;10.18;46.22
67430;BME280;54298;52.076;5.264;2023-04-25T09:38:08;101453.0;;;10.31;46.85
67430;BME280;54298;52.076;5.264;2023-04-25T09:39:45;101455.0;;;10.29;47.09
67430;BME280;54298;52.076;5.264;2023-04-25T09:42:59;101455.0;;;10.34;46.86
67430;BME280;54298;52.076;5.264;2023-04-25T09:44:35;101469.0;;;10.43;48.55
67430;BME280;54298;52.076;5.264;2023-04-25T09:46:12;101470.0;;;10.44;48.32
67430;BME280;54298;52.076;5.264;2023-04-25T09:49:25;101469.0;;;10.32;48.9
67430;BME280;54298;52.076;5.264;2023-04-25T09:51:04;101476.0;;;10.18;49.29
67430;BME280;54298;52.076;5.264;2023-04-25T09:52:42;101472.0;;;9.77;50.17
67430;BME280;54298;52.076;5.264;2023-04-25T09:54:19;101486.0;;;9.56;51.8
67430;BME280;54298;52.076;5.264;2023-04-25T09:57:32;101488.0;;;9.44;53.12
67430;BME280;54298;52.076;5.264;2023-04-25T09:59:09;101493.0;;;9.49;53.82
67430;BME280;54298;52.076;5.264;2023-04-25T10:00:47;101487.0;;;9.13;54.7
67430;BME280;54298;52.076;5.264;2023-04-25T10:04:04;101494.0;;;9.21;55.41
67430;BME280;54298;52.076;5.264;2023-04-25T10:05:43;101496.0;;;9.46;55.51
67430;BME280;54298;52.076;5.264;2023-04-25T10:07:20;101497.0;;;9.39;56.9
67430;BME280;54298;52.076;5.264;2023-04-25T10:08:58;101499.0;;;9.6;54.55
67430;BME280;54298;52.076;5.264;2023-04-25T10:12:13;101500.0;;;9.72;54.19
67430;BME280;54298;52.076;5.264;2023-04-25T10:13:49;101500.0;;;9.86;54.94
67430;BME280;54298;52.076;5.264;2023-04-25T10:15:26;101501.0;;;10.11;52.99
67430;BME280;54298;52.076;5.264;2023-04-25T10:18:39;101503.0;;;10.08;51.79
67430;BME280;54298;52.076;5.264;2023-04-25T10:20:15;101505.0;;;10.06;53.45
67430;BME280;54298;52.076;5.264;2023-04-25T10:21:52;101497.0;;;9.89;51.72
67430;BME280;54298;52.076;5.264;2023-04-25T10:25:12;101498.0;;;10.05;52.81
67430;BME280;54298;52.076;5.264;2023-04-25T10:26:49;101495.0;;;10.23;53.68
67430;BME280;54298;52.076;5.264;2023-04-25T10:28:26;101505.0;;;10.39;52.64
67430;BME280;54298;52.076;5.264;2023-04-25T10:30:03;101500.0;;;10.43;50.7
67430;BME280;54298;52.076;5.264;2023-04-25T10:33:30;101499.0;;;10.45;51.02
67430;BME280;54298;52.076;5.264;2023-04-25T10:35:12;101501.0;;;10.52;50.87
67430;BME280;54298;52.076;5.264;2023-04-25T10:36:50;101507.0;;;10.45;49.99
67430;BME280;54298;52.076;5.264;2023-04-25T10:38:27;101503.0;;;10.61;50.15
67430;BME280;54298;52.076;5.264;2023-04-25T10:41:46;101506.0;;;10.78;50.22
67430;BME280;54298;52.076;5.264;2023-04-25T10:43:34;101495.0;;;10.23;49.4
67430;BME280;54298;52.076;5.264;2023-04-25T10:45:15;101494.0;;;10.5;50.19
67430;BME280;54298;52.076;5.264;2023-04-25T10:46:51;101502.0;;;10.74;49.12
67430;BME280;54298;52.076;5.264;2023-04-25T10:50:05;101510.0;;;10.7;49.37
67430;BME280;54298;52.076;5.264;2023-04-25T10:53:24;101511.0;;;10.9;47.69
67430;BME280;54298;52.076;5.264;2023-04-25T10:55:02;101514.0;;;10.91;46.12
67430;BME280;54298;52.076;5.264;2023-04-25T10:58:21;101515.0;;;10.79;46.07
67430;BME280;54298;52.076;5.264;2023-04-25T11:00:00;101509.0;;;10.65;44.43
67430;BME280;54298;52.076;5.264;2023-04-25T11:01:41;101511.0;;;10.83;45.22
67430;BME280;54298;52.076;5.264;2023-04-25T11:04:59;101519.0;;;10.81;46.5
67430;BME280;54298;52.076;5.264;2023-04-25T11:06:55;101505.0;;;10.75;45.84
67430;BME280;54298;52.076;5.264;2023-04-25T11:08:43;101511.0;;;10.87;44.51
67430;BME280;54298;52.076;5.264;2023-04-25T11:10:27;101505.0;;;10.97;44.58
67430;BME280;54298;52.076;5.264;2023-04-25T11:12:04;101510.0;;;11.05;45.04
67430;BME280;54298;52.076;5.264;2023-04-25T11:15:16;101508.0;;;10.8;46.29
67430;BME280;54298;52.076;5.264;2023-04-25T11:16:53;101513.0;;;10.79;47.44
67430;BME280;54298;52.076;5.264;2023-04-25T11:18:28;101520.0;;;10.93;49.1
67430;BME280;54298;52.076;5.264;2023-04-25T11:20:06;101537.0;;;10.39;50.26
67430;BME280;54298;52.076;5.264;2023-04-25T11:23:19;101536.0;;;10.25;50.57